Time;durP1;ratioP1;P1;durP2;ratioP2;P2;SDS_P1;SDS_P2;PMS_P1;PMS_P2;Temp;Humidity;BMP_temperature;BMP_pressure;BME280_temperature;BME280_humidity;BME280_pressure;Samples;Min_cycle;Max_cycle;Signal;HPM_P1;HPM_P2
2022/11/29 00:00:39;;;;;;;15.48;14.07;;;11.60;99.90;;;;;;2077790;28;20029;-72
2022/11/29 00:01:40;;;;;;;16.20;14.70;;;11.60;99.90;;;;;;2075042;28;20044;-72
2022/11/29 00:02:41;;;;;;;16.23;14.73;;;11.60;99.90;;;;;;2076916;28;20037;-72
2022/11/29 00:03:42;;;;;;;16.38;14.85;;;11.60;99.90;;;;;;2077859;28;20117;-72
2022/11/29 00:04:42;;;;;;;15.55;14.00;;;11.60;99.90;;;;;;2076924;28;20397;-72
2022/11/29 00:05:43;;;;;;;14.55;13.13;;;11.60;99.90;;;;;;2085385;28;20112;-72
2022/11/29 00:06:43;;;;;;;15.23;13.82;;;11.60;99.90;;;;;;2085642;28;20036;-72
2022/11/29 00:07:44;;;;;;;14.90;13.60;;;11.60;99.90;;;;;;2078244;28;20037;-72
2022/11/29 00:08:45;;;;;;;15.32;13.93;;;11.60;99.90;;;;;;2076887;28;20025;-72
2022/11/29 00:09:45;;;;;;;16.02;12.85;;;11.60;99.90;;;;;;2078008;28;20503;-72
2022/11/29 00:10:46;;;;;;;13.50;12.25;;;11.60;99.90;;;;;;2077357;28;20048;-72
2022/11/29 00:13:06;;;;;;;15.88;14.40;;;11.60;99.90;;;;;;2078029;28;20492;-72
2022/11/29 00:14:12;;;;;;;14.80;13.50;;;11.60;99.90;;;;;;2078603;28;20022;-72
2022/11/29 00:15:12;;;;;;;15.57;14.10;;;11.60;99.90;;;;;;2078807;28;20038;-72
2022/11/29 00:16:14;;;;;;;16.58;14.23;;;11.60;99.90;;;;;;2077473;28;20022;-72
2022/11/29 00:17:15;;;;;;;15.02;13.63;;;11.60;99.90;;;;;;2076769;28;20026;-72
2022/11/29 00:18:15;;;;;;;15.88;14.32;;;11.70;99.90;;;;;;2078294;28;20032;-72
2022/11/29 00:19:16;;;;;;;15.20;13.80;;;11.60;99.90;;;;;;2078083;28;20021;-72
2022/11/29 00:20:17;;;;;;;16.05;14.57;;;11.60;99.90;;;;;;2080553;28;20120;-72
2022/11/29 00:21:18;;;;;;;17.02;15.43;;;11.70;99.90;;;;;;2072455;28;20660;-72
2022/11/29 00:22:18;;;;;;;15.70;14.30;;;11.60;99.90;;;;;;2078178;28;20031;-72
2022/11/29 00:23:19;;;;;;;15.70;14.27;;;11.60;99.90;;;;;;2079681;28;20067;-71
2022/11/29 00:24:19;;;;;;;15.07;13.77;;;11.70;99.90;;;;;;2078607;28;20507;-71
2022/11/29 00:25:20;;;;;;;15.50;14.10;;;11.70;99.90;;;;;;2078618;28;20064;-71
2022/11/29 00:26:20;;;;;;;16.75;15.02;;;11.60;99.90;;;;;;2077578;28;20033;-71
2022/11/29 00:27:21;;;;;;;16.75;15.05;;;11.60;99.90;;;;;;2078478;28;20115;-71
2022/11/29 00:28:21;;;;;;;15.27;13.82;;;11.70;99.90;;;;;;2085445;28;20020;-71
2022/11/29 00:29:22;;;;;;;15.85;14.40;;;11.70;99.90;;;;;;2082616;28;20029;-71
2022/11/29 00:30:22;;;;;;;16.30;14.77;;;11.60;99.90;;;;;;2076440;28;20029;-71
2022/11/29 00:31:31;;;;;;;16.15;14.55;;;11.70;99.90;;;;;;2077366;28;20650;-71
2022/11/29 00:32:31;;;;;;;16.88;15.23;;;11.70;99.90;;;;;;2076909;28;20056;-72
2022/11/29 00:33:32;;;;;;;15.48;14.05;;;11.60;99.90;;;;;;2076903;28;20037;-72
2022/11/29 00:34:33;;;;;;;16.30;14.70;;;11.70;99.90;;;;;;2077717;28;20132;-72
2022/11/29 00:35:33;;;;;;;14.98;13.57;;;11.70;99.90;;;;;;2077035;28;20537;-71
2022/11/29 00:36:34;;;;;;;15.60;14.13;;;11.70;99.90;;;;;;2077721;28;20064;-71
2022/11/29 00:37:35;;;;;;;15.93;14.50;;;11.70;99.90;;;;;;2076211;28;20029;-72
2022/11/29 00:38:35;;;;;;;15.27;13.68;;;11.70;99.90;;;;;;2078003;28;20100;-72
2022/11/29 00:39:36;;;;;;;16.15;14.55;;;11.70;99.90;;;;;;2075064;28;20091;-71
2022/11/29 00:40:37;;;;;;;13.30;12.00;;;11.70;99.90;;;;;;2078911;28;20037;-72
2022/11/29 00:41:37;;;;;;;13.80;12.55;;;11.70;99.90;;;;;;2077513;28;20049;-72
2022/11/29 00:42:38;;;;;;;14.70;13.30;;;11.70;99.90;;;;;;2076860;28;20048;-72
2022/11/29 00:43:39;;;;;;;14.10;12.70;;;11.70;99.90;;;;;;2075795;28;20029;-72
2022/11/29 00:44:39;;;;;;;14.00;12.73;;;11.70;99.90;;;;;;2076852;28;20029;-71
2022/11/29 00:45:40;;;;;;;13.55;12.15;;;11.70;99.90;;;;;;2076917;28;20056;-72
2022/11/29 00:46:40;;;;;;;14.27;12.88;;;11.70;99.90;;;;;;2076782;28;20025;-72
2022/11/29 00:47:41;;;;;;;13.77;12.48;;;11.70;99.90;;;;;;2077471;28;20035;-71
2022/11/29 00:48:41;;;;;;;13.85;12.45;;;11.70;99.90;;;;;;2076286;28;20030;-72
2022/11/29 00:49:42;;;;;;;13.57;12.32;;;11.70;99.90;;;;;;2078929;28;20029;-72
2022/11/29 00:50:43;;;;;;;13.55;12.27;;;11.70;99.90;;;;;;2076988;28;20022;-72
2022/11/29 00:51:43;;;;;;;11.00;9.82;;;11.70;99.90;;;;;;2077935;28;20017;-71
2022/11/29 00:52:44;;;;;;;13.25;11.95;;;11.70;99.90;;;;;;2077546;28;20037;-72
2022/11/29 00:53:44;;;;;;;13.10;11.90;;;11.70;99.90;;;;;;2078538;28;20053;-71
2022/11/29 00:54:45;;;;;;;13.65;12.45;;;11.70;99.90;;;;;;2076643;28;20026;-71
2022/11/29 00:55:50;;;;;;;11.77;10.57;;;11.70;99.90;;;;;;2079031;28;20113;-71
2022/11/29 00:56:51;;;;;;;13.27;11.93;;;11.70;99.90;;;;;;2076912;28;20033;-71
2022/11/29 00:57:52;;;;;;;12.93;11.73;;;11.70;99.90;;;;;;2076998;28;20374;-71
2022/11/29 00:58:52;;;;;;;13.35;12.15;;;11.70;99.90;;;;;;2078660;28;20044;-72
2022/11/29 00:59:53;;;;;;;13.60;12.20;;;11.70;99.90;;;;;;2077727;28;20033;-71
2022/11/29 01:00:54;;;;;;;13.43;12.13;;;11.70;99.90;;;;;;2078049;28;20057;-71
2022/11/29 01:01:55;;;;;;;13.18;11.68;;;11.70;99.90;;;;;;2078113;28;20032;-71
2022/11/29 01:02:55;;;;;;;13.07;11.75;;;11.70;99.90;;;;;;2078838;28;20501;-72
2022/11/29 01:03:56;;;;;;;13.35;11.30;;;11.70;99.90;;;;;;2085535;28;20017;-72
2022/11/29 01:04:57;;;;;;;12.70;11.50;;;11.60;99.90;;;;;;2086127;28;20017;-72
2022/11/29 01:06:08;;;;;;;11.95;10.75;;;11.60;99.90;;;;;;2075807;28;20057;-72
2022/11/29 01:07:09;;;;;;;11.38;10.18;;;11.60;99.90;;;;;;2077099;28;20040;-72
2022/11/29 01:08:12;;;;;;;10.90;9.90;;;11.60;99.90;;;;;;2077659;28;20068;-72
2022/11/29 01:09:13;;;;;;;9.52;8.70;;;11.60;99.90;;;;;;2085262;28;20056;-72
2022/11/29 01:10:13;;;;;;;10.25;9.35;;;11.60;99.90;;;;;;2083838;28;20060;-72
2022/11/29 01:11:20;;;;;;;10.90;9.80;;;11.60;99.90;;;;;;2078306;28;20033;-71
2022/11/29 01:12:21;;;;;;;10.18;9.18;;;11.60;99.90;;;;;;2078146;28;20100;-71
2022/11/29 01:13:21;;;;;;;10.10;9.20;;;11.60;99.90;;;;;;2078063;28;20014;-71
2022/11/29 01:14:22;;;;;;;10.52;9.43;;;11.60;99.90;;;;;;2078574;28;20049;-71
2022/11/29 01:15:22;;;;;;;10.63;9.52;;;11.60;99.90;;;;;;2076804;28;20018;-72
2022/11/29 01:16:23;;;;;;;10.25;9.35;;;11.60;99.90;;;;;;2076303;28;20014;-72
2022/11/29 01:17:23;;;;;;;10.02;9.13;;;11.60;99.90;;;;;;2078530;28;20029;-71
2022/11/29 01:18:24;;;;;;;9.82;8.82;;;11.60;99.90;;;;;;2077727;28;20029;-72
2022/11/29 01:19:25;;;;;;;12.00;10.68;;;11.60;99.90;;;;;;2077497;28;20581;-72
2022/11/29 01:20:26;;;;;;;11.00;9.90;;;11.60;99.90;;;;;;2078351;28;20056;-72
2022/11/29 01:21:27;;;;;;;10.52;9.43;;;11.60;99.90;;;;;;2077408;28;20029;-72
2022/11/29 01:22:27;;;;;;;9.98;8.98;;;11.60;99.90;;;;;;2076808;28;20021;-71
2022/11/29 01:23:28;;;;;;;11.13;10.02;;;11.60;99.90;;;;;;2077649;28;20033;-72
2022/11/29 01:24:29;;;;;;;13.93;10.02;;;11.60;99.90;;;;;;2077433;28;20505;-71
2022/11/29 01:25:31;;;;;;;11.60;10.43;;;11.60;99.90;;;;;;2086021;28;20501;-71
2022/11/29 01:26:32;;;;;;;11.35;10.15;;;11.60;99.90;;;;;;2077560;28;20032;-71
2022/11/29 01:27:33;;;;;;;13.05;10.80;;;11.60;99.90;;;;;;2077000;28;20112;-71
2022/11/29 01:28:35;;;;;;;12.32;11.05;;;11.60;99.90;;;;;;2076287;28;20035;-71
2022/11/29 01:29:35;;;;;;;14.32;11.15;;;11.70;99.90;;;;;;2077709;28;20025;-72
2022/11/29 01:30:36;;;;;;;11.27;9.90;;;11.60;99.90;;;;;;2076937;28;20033;-71
2022/11/29 01:31:37;;;;;;;12.90;10.98;;;11.70;99.90;;;;;;2077358;28;20033;-72
2022/11/29 01:32:38;;;;;;;11.35;10.20;;;11.70;99.90;;;;;;2074506;28;20548;-71
2022/11/29 01:33:39;;;;;;;11.82;10.65;;;11.70;99.90;;;;;;2077969;28;20021;-72
2022/11/29 01:34:40;;;;;;;13.88;9.80;;;11.70;99.90;;;;;;2076757;28;20421;-72
2022/11/29 01:35:49;;;;;;;11.75;10.55;;;11.70;99.90;;;;;;2077509;28;20021;-72
2022/11/29 01:36:50;;;;;;;10.93;9.83;;;11.70;99.90;;;;;;2077828;28;20397;-72
2022/11/29 01:37:50;;;;;;;11.65;10.45;;;11.70;99.90;;;;;;2084749;28;20275;-72
2022/11/29 01:38:52;;;;;;;11.93;10.68;;;11.60;99.90;;;;;;2085163;28;20028;-72
2022/11/29 01:39:52;;;;;;;11.65;10.48;;;11.70;99.90;;;;;;2078196;28;20022;-71
2022/11/29 01:41:18;;;;;;;12.23;10.30;;;11.60;99.90;;;;;;2077857;28;20025;-72
2022/11/29 01:42:18;;;;;;;12.27;10.98;;;11.60;99.90;;;;;;2075124;28;20087;-72
2022/11/29 01:43:19;;;;;;;11.38;10.23;;;11.60;99.90;;;;;;2078304;28;20071;-72
2022/11/29 01:44:20;;;;;;;12.93;11.52;;;11.60;99.90;;;;;;2078427;28;20032;-72
2022/11/29 01:45:25;;;;;;;13.40;11.90;;;11.60;99.90;;;;;;2075908;28;20030;-72
2022/11/29 01:46:28;;;;;;;14.82;12.60;;;11.60;99.90;;;;;;2078668;28;20018;-72
2022/11/29 01:47:29;;;;;;;15.60;13.30;;;11.60;99.90;;;;;;2076382;28;20432;-71
2022/11/29 01:48:31;;;;;;;18.63;13.25;;;11.60;99.90;;;;;;2076308;28;20080;-71
2022/11/29 01:49:39;;;;;;;16.10;13.25;;;11.60;99.90;;;;;;2077789;28;20032;-71
2022/11/29 01:50:41;;;;;;;19.88;14.30;;;11.60;99.90;;;;;;2077000;28;20425;-71
2022/11/29 01:51:47;;;;;;;16.20;13.38;;;11.60;99.90;;;;;;2077128;28;20137;-71
2022/11/29 01:52:48;;;;;;;18.95;14.70;;;11.60;99.90;;;;;;2076716;28;20449;-71
2022/11/29 01:53:48;;;;;;;22.30;16.20;;;11.60;99.90;;;;;;2077380;28;20021;-71
2022/11/29 01:54:57;;;;;;;21.58;16.35;;;11.50;99.90;;;;;;2075566;28;20034;-71
2022/11/29 01:56:02;;;;;;;27.90;19.13;;;11.60;99.90;;;;;;2078592;28;20128;-71
2022/11/29 01:57:05;;;;;;;26.98;19.45;;;11.60;99.90;;;;;;2077033;28;20417;-71
2022/11/29 01:58:08;;;;;;;25.38;16.63;;;11.60;99.90;;;;;;2078028;28;20033;-71
2022/11/29 01:59:11;;;;;;;32.35;19.90;;;11.60;99.90;;;;;;2075930;28;20037;-71
2022/11/29 02:00:17;;;;;;;30.65;19.27;;;11.60;99.90;;;;;;2077480;28;20029;-71
2022/11/29 02:01:17;;;;;;;31.23;18.20;;;11.50;99.90;;;;;;2075659;28;20039;-71
2022/11/29 02:02:28;;;;;;;32.55;19.60;;;11.50;99.90;;;;;;2076142;28;20026;-71
2022/11/29 02:03:29;;;;;;;35.35;21.48;;;11.60;99.90;;;;;;2078085;28;20739;-71
2022/11/29 02:04:32;;;;;;;36.47;21.65;;;11.50;99.90;;;;;;2075949;28;20029;-71
2022/11/29 02:05:33;;;;;;;37.45;22.15;;;11.50;99.90;;;;;;2077417;28;20021;-71
2022/11/29 02:06:35;;;;;;;39.30;21.90;;;11.50;99.90;;;;;;2076418;28;20092;-71
2022/11/29 02:07:36;;;;;;;28.23;17.90;;;11.50;99.90;;;;;;2077160;28;20835;-71
2022/11/29 02:08:39;;;;;;;35.15;21.63;;;11.50;99.90;;;;;;2074310;28;20677;-71
2022/11/29 02:09:40;;;;;;;36.80;21.23;;;11.50;99.90;;;;;;2078082;28;20521;-71
2022/11/29 02:10:59;;;;;;;34.63;21.55;;;11.50;99.90;;;;;;2076827;28;20687;-71
2022/11/29 02:12:06;;;;;;;35.10;20.48;;;11.60;99.90;;;;;;2076916;28;20030;-72
2022/11/29 02:13:24;;;;;;;36.83;22.02;;;11.60;99.90;;;;;;2076992;28;20022;-71
2022/11/29 02:15:06;;;;;;;36.42;20.77;;;11.50;99.90;;;;;;2083508;28;20029;-71
2022/11/29 02:16:18;;;;;;;38.67;21.75;;;11.50;99.90;;;;;;2043066;28;20139;-71
2022/11/29 02:17:31;;;;;;;39.75;22.25;;;11.50;99.90;;;;;;2076120;28;20021;-71
2022/11/29 02:19:02;;;;;;;42.00;23.15;;;11.50;99.90;;;;;;2077452;28;20021;-71
2022/11/29 02:20:33;;;;;;;57.33;23.88;;;11.50;99.90;;;;;;2077720;28;20466;-71
2022/11/29 02:21:51;;;;;;;39.60;22.45;;;11.40;99.90;;;;;;2077451;28;20033;-71
2022/11/29 02:23:25;;;;;;;40.05;22.92;;;11.40;99.90;;;;;;2077058;28;20028;-71
2022/11/29 02:24:53;;;;;;;37.00;21.75;;;11.40;99.90;;;;;;2074000;28;20030;-71
2022/11/29 02:26:15;;;;;;;35.25;21.98;;;11.40;99.90;;;;;;2076404;28;20406;-71
2022/11/29 02:27:57;;;;;;;41.60;22.65;;;11.40;99.90;;;;;;2075247;28;20029;-71
2022/11/29 02:29:16;;;;;;;40.53;22.70;;;11.40;99.90;;;;;;2076861;28;20030;-71
2022/11/29 02:30:50;;;;;;;39.28;23.48;;;11.30;99.90;;;;;;2076370;28;20485;-71
2022/11/29 02:32:25;;;;;;;36.63;21.65;;;11.40;99.90;;;;;;2076879;28;20030;-71
2022/11/29 02:34:00;;;;;;;42.13;23.42;;;11.30;99.90;;;;;;2084072;28;20029;-71
2022/11/29 02:35:45;;;;;;;43.72;23.05;;;11.30;99.90;;;;;;2077531;28;20113;-71
2022/11/29 02:36:50;;;;;;;39.20;22.15;;;11.30;99.90;;;;;;2078935;28;20048;-71
2022/11/29 02:38:20;;;;;;;41.97;22.92;;;11.30;99.90;;;;;;2079468;28;20027;-71
2022/11/29 02:39:42;;;;;;;38.85;22.58;;;11.30;99.90;;;;;;2076850;28;20025;-71
2022/11/29 02:40:57;;;;;;;38.88;21.63;;;11.30;99.90;;;;;;2077994;28;20029;-71
2022/11/29 02:42:26;;;;;;;39.70;23.55;;;11.30;99.90;;;;;;2078447;28;20116;-71
2022/11/29 02:43:51;;;;;;;35.55;21.38;;;11.30;99.90;;;;;;2077023;28;20091;-71
2022/11/29 02:45:05;;;;;;;34.35;20.30;;;11.30;99.90;;;;;;2076915;28;20033;-71
2022/11/29 02:46:20;;;;;;;39.92;21.92;;;11.30;99.90;;;;;;2075139;28;20057;-71
2022/11/29 02:47:43;;;;;;;42.25;22.73;;;11.40;99.90;;;;;;2074903;28;20539;-71
2022/11/29 02:49:01;;;;;;;33.63;20.23;;;11.40;99.90;;;;;;2076476;28;20026;-71
2022/11/29 02:50:30;;;;;;;34.63;20.10;;;11.30;99.90;;;;;;2075368;28;20424;-71
2022/11/29 02:51:56;;;;;;;41.25;21.50;;;11.30;99.90;;;;;;2085093;28;20025;-71
2022/11/29 02:53:35;;;;;;;36.92;20.00;;;11.30;99.90;;;;;;2082081;28;20029;-71
2022/11/29 02:54:51;;;;;;;35.60;19.67;;;11.30;99.90;;;;;;2076684;28;20489;-72
2022/11/29 02:56:09;;;;;;;42.55;22.00;;;11.30;99.90;;;;;;2076371;28;20044;-71
2022/11/29 02:57:36;;;;;;;39.95;21.73;;;11.30;99.90;;;;;;2076382;28;20478;-71
2022/11/29 02:58:54;;;;;;;41.05;21.65;;;11.30;99.90;;;;;;2083290;28;20033;-71
2022/11/29 03:00:14;;;;;;;41.22;20.88;;;11.30;99.90;;;;;;2083655;28;20021;-71
2022/11/29 03:01:28;;;;;;;38.63;20.65;;;11.30;99.90;;;;;;2076197;28;20040;-71
2022/11/29 03:02:48;;;;;;;42.95;21.10;;;11.20;99.90;;;;;;2077038;28;20036;-71
2022/11/29 03:04:03;;;;;;;43.77;21.23;;;11.20;99.90;;;;;;2076581;28;20029;-71
2022/11/29 03:05:28;;;;;;;39.00;19.63;;;11.20;99.90;;;;;;2077670;28;20374;-71
2022/11/29 03:06:38;;;;;;;41.25;21.05;;;11.30;99.90;;;;;;2079239;28;20025;-71
2022/11/29 03:07:56;;;;;;;43.50;21.17;;;11.30;99.90;;;;;;2079274;28;20775;-71
2022/11/29 03:09:07;;;;;;;46.45;22.13;;;11.20;99.90;;;;;;2077635;28;20026;-71
2022/11/29 03:10:28;;;;;;;49.80;21.52;;;11.20;99.90;;;;;;2077791;28;20030;-71
2022/11/29 03:11:44;;;;;;;47.58;21.98;;;11.20;99.90;;;;;;2076665;28;20060;-71
2022/11/29 03:12:48;;;;;;;41.65;20.42;;;11.20;99.90;;;;;;2075010;28;20763;-71
2022/11/29 03:14:14;;;;;;;45.00;20.13;;;11.20;99.90;;;;;;2076369;28;20032;-71
2022/11/29 03:15:36;;;;;;;50.25;22.23;;;11.20;99.90;;;;;;2077715;28;20022;-71
2022/11/29 03:16:54;;;;;;;55.10;22.17;;;11.20;99.90;;;;;;2077512;28;20040;-71
2022/11/29 03:18:08;;;;;;;42.10;21.10;;;11.20;99.90;;;;;;2078594;28;20033;-71
2022/11/29 03:19:38;;;;;;;41.75;18.70;;;11.20;99.90;;;;;;2078624;28;20026;-71
2022/11/29 03:21:07;;;;;;;44.90;20.65;;;11.20;99.90;;;;;;2077853;28;20025;-71
2022/11/29 03:22:13;;;;;;;38.97;18.02;;;11.20;99.90;;;;;;2078832;28;20045;-71
2022/11/29 03:23:35;;;;;;;39.45;18.77;;;11.20;99.90;;;;;;2078528;28;20121;-71
2022/11/29 03:24:56;;;;;;;31.67;17.48;;;11.10;99.90;;;;;;2078478;28;20025;-71
2022/11/29 03:26:03;;;;;;;37.97;19.70;;;11.20;99.90;;;;;;2079458;28;20413;-71
2022/11/29 03:27:15;;;;;;;45.10;21.25;;;11.20;99.90;;;;;;2077618;28;20033;-71
2022/11/29 03:28:18;;;;;;;39.83;18.65;;;11.10;99.90;;;;;;2075964;28;20041;-71
2022/11/29 03:29:34;;;;;;;42.85;20.23;;;11.20;99.90;;;;;;2079362;28;20573;-71
2022/11/29 03:30:39;;;;;;;41.28;18.35;;;11.20;99.90;;;;;;2078390;28;20791;-71
2022/11/29 03:31:55;;;;;;;33.47;18.13;;;11.10;99.90;;;;;;2078444;28;20032;-71
2022/11/29 03:33:11;;;;;;;40.50;18.90;;;11.20;99.90;;;;;;2078139;28;20049;-71
2022/11/29 03:34:38;;;;;;;36.83;19.75;;;11.20;99.90;;;;;;2076414;28;20025;-71
2022/11/29 03:35:44;;;;;;;42.53;19.40;;;11.20;99.90;;;;;;2077614;28;20041;-71
2022/11/29 03:36:54;;;;;;;37.05;18.05;;;11.10;99.90;;;;;;2076513;28;20093;-71
2022/11/29 03:38:24;;;;;;;35.00;18.77;;;11.10;99.90;;;;;;2077987;28;20753;-71
2022/11/29 03:39:57;;;;;;;42.63;18.70;;;11.10;99.90;;;;;;2077982;28;20078;-71
2022/11/29 03:41:15;;;;;;;39.35;18.77;;;11.10;99.90;;;;;;2063476;28;20129;-71
2022/11/29 03:42:22;;;;;;;38.35;18.20;;;11.10;99.90;;;;;;2078192;28;20088;-71
2022/11/29 03:43:31;;;;;;;38.17;18.50;;;11.10;99.90;;;;;;2078454;28;20116;-71
2022/11/29 03:45:07;;;;;;;47.78;19.85;;;11.10;99.90;;;;;;2083464;28;20032;-71
2022/11/29 03:46:37;;;;;;;40.47;19.42;;;11.10;99.90;;;;;;2076843;28;20537;-71
2022/11/29 03:47:59;;;;;;;42.08;18.23;;;11.10;99.90;;;;;;2072513;28;20077;-71
2022/11/29 03:49:12;;;;;;;41.53;19.63;;;11.10;99.90;;;;;;2078490;28;20032;-71
2022/11/29 03:50:19;;;;;;;38.50;17.83;;;11.00;99.90;;;;;;2077681;28;20026;-71
2022/11/29 03:51:37;;;;;;;41.85;18.75;;;11.10;99.90;;;;;;2074559;28;20025;-71
2022/11/29 03:53:16;;;;;;;43.78;19.17;;;11.10;99.90;;;;;;2076831;28;21178;-71
2022/11/29 03:54:24;;;;;;;45.30;19.50;;;11.00;99.90;;;;;;2069220;28;20029;-71
2022/11/29 03:55:47;;;;;;;39.65;18.30;;;11.10;99.90;;;;;;2077013;28;20805;-71
2022/11/29 03:56:48;;;;;;;40.67;16.77;;;11.10;99.90;;;;;;2079784;28;20509;-71
2022/11/29 03:58:17;;;;;;;38.60;19.13;;;11.10;99.90;;;;;;2077064;28;20478;-71
2022/11/29 03:59:36;;;;;;;44.80;16.63;;;11.10;99.90;;;;;;2078306;28;20024;-71
2022/11/29 04:00:48;;;;;;;46.45;18.70;;;11.10;99.90;;;;;;2076897;28;20033;-71
2022/11/29 04:02:19;;;;;;;41.55;18.80;;;11.10;99.90;;;;;;2078445;28;20033;-71
2022/11/29 04:03:37;;;;;;;47.55;18.50;;;11.10;99.90;;;;;;2077759;28;20570;-71
2022/11/29 04:04:52;;;;;;;45.60;19.67;;;11.10;99.90;;;;;;2077226;28;20477;-71
2022/11/29 04:06:16;;;;;;;47.95;18.88;;;11.20;99.90;;;;;;2077687;28;20060;-71
2022/11/29 04:07:29;;;;;;;34.60;15.90;;;11.10;99.90;;;;;;2079075;28;20033;-71
2022/11/29 04:08:47;;;;;;;36.53;17.67;;;11.10;99.90;;;;;;2078911;28;20434;-71
2022/11/29 04:10:02;;;;;;;38.85;18.30;;;11.10;99.90;;;;;;2079040;28;20026;-71
2022/11/29 04:11:21;;;;;;;40.17;17.92;;;11.10;99.90;;;;;;2077331;28;20108;-71
2022/11/29 04:13:04;;;;;;;35.70;17.92;;;11.20;99.90;;;;;;2083801;28;20014;-71
2022/11/29 04:14:48;;;;;;;35.63;18.30;;;11.10;99.90;;;;;;2079183;28;20025;-71
2022/11/29 04:16:04;;;;;;;40.33;18.42;;;11.10;99.90;;;;;;2074507;28;20072;-71
2022/11/29 04:17:27;;;;;;;37.95;18.77;;;11.10;99.90;;;;;;2076604;28;20017;-71
2022/11/29 04:18:47;;;;;;;46.67;19.52;;;11.10;99.90;;;;;;2077531;28;20017;-71
2022/11/29 04:20:25;;;;;;;44.78;21.15;;;11.10;99.90;;;;;;2077230;28;20053;-71
2022/11/29 04:21:43;;;;;;;40.60;19.38;;;11.10;99.90;;;;;;2069341;28;20045;-71
2022/11/29 04:23:12;;;;;;;45.92;22.92;;;11.00;99.90;;;;;;2078612;28;20139;-71
2022/11/29 04:24:31;;;;;;;43.83;22.02;;;11.00;99.90;;;;;;2077191;28;20030;-71
2022/11/29 04:25:38;;;;;;;47.22;22.05;;;11.00;99.90;;;;;;2077420;28;20022;-71
2022/11/29 04:27:04;;;;;;;44.20;21.25;;;11.00;99.90;;;;;;2077103;28;20048;-71
2022/11/29 04:28:30;;;;;;;51.65;22.73;;;11.00;99.90;;;;;;2076688;28;20036;-71
2022/11/29 04:29:50;;;;;;;44.13;21.35;;;11.00;99.90;;;;;;2078193;28;20031;-71
2022/11/29 04:31:11;;;;;;;39.47;20.90;;;11.00;99.90;;;;;;2076290;28;20111;-71
2022/11/29 04:32:48;;;;;;;45.22;22.40;;;11.00;99.90;;;;;;2075513;28;20075;-71
2022/11/29 04:34:08;;;;;;;42.13;21.90;;;11.00;99.90;;;;;;2075817;28;20052;-71
2022/11/29 04:35:47;;;;;;;40.87;22.17;;;11.00;99.90;;;;;;2076938;28;20042;-71
2022/11/29 04:37:02;;;;;;;43.65;21.42;;;11.00;99.90;;;;;;2077433;28;20057;-71
2022/11/29 04:38:28;;;;;;;44.17;23.10;;;11.00;99.90;;;;;;2077427;28;20477;-71
2022/11/29 04:39:37;;;;;;;46.05;22.63;;;11.00;99.90;;;;;;2075599;28;20935;-71
2022/11/29 04:40:50;;;;;;;41.05;21.98;;;11.00;99.90;;;;;;2078014;28;20028;-71
2022/11/29 04:42:13;;;;;;;39.92;21.27;;;11.00;99.90;;;;;;2086646;28;20123;-71
2022/11/29 04:43:23;;;;;;;47.60;22.83;;;11.00;99.90;;;;;;2083317;28;20029;-71
2022/11/29 04:44:31;;;;;;;44.22;21.40;;;11.00;99.90;;;;;;2077547;28;20038;-71
2022/11/29 04:45:41;;;;;;;44.45;22.63;;;11.00;99.90;;;;;;2078537;28;20033;-71
2022/11/29 04:46:50;;;;;;;43.97;24.43;;;11.00;99.90;;;;;;2076676;28;20029;-71
2022/11/29 04:48:12;;;;;;;43.75;22.27;;;11.00;99.90;;;;;;2077872;28;20325;-71
2022/11/29 04:49:20;;;;;;;47.15;23.27;;;11.00;99.90;;;;;;2076111;28;20042;-71
2022/11/29 04:50:47;;;;;;;49.83;24.48;;;11.00;99.90;;;;;;2075936;28;20026;-71
2022/11/29 04:52:06;;;;;;;41.22;23.10;;;11.00;99.90;;;;;;2076051;28;20034;-71
2022/11/29 04:53:28;;;;;;;40.90;19.83;;;11.00;99.90;;;;;;2078408;28;20021;-71
2022/11/29 04:55:03;;;;;;;41.33;21.88;;;11.00;99.90;;;;;;2077915;28;20029;-71
2022/11/29 04:56:18;;;;;;;41.08;22.17;;;11.00;99.90;;;;;;2086151;28;20021;-71
2022/11/29 04:57:50;;;;;;;42.97;23.45;;;11.00;99.90;;;;;;2081231;28;20029;-71
2022/11/29 04:58:56;;;;;;;47.55;24.15;;;11.00;99.90;;;;;;2074730;28;20041;-71
2022/11/29 05:00:09;;;;;;;48.58;23.60;;;11.00;99.90;;;;;;2078346;28;20018;-71
2022/11/29 05:01:24;;;;;;;46.72;24.80;;;11.00;99.90;;;;;;2077109;28;20034;-71
2022/11/29 05:02:50;;;;;;;49.97;24.75;;;11.00;99.90;;;;;;2076791;28;20061;-71
2022/11/29 05:04:01;;;;;;;44.67;23.40;;;11.00;99.90;;;;;;2076658;28;20029;-71
2022/11/29 05:05:22;;;;;;;42.42;23.95;;;11.00;99.90;;;;;;2075240;28;20017;-71
2022/11/29 05:06:59;;;;;;;44.92;21.80;;;11.00;99.90;;;;;;2076381;28;20018;-71
2022/11/29 05:08:15;;;;;;;42.53;23.02;;;11.00;99.90;;;;;;2060992;28;20029;-71
2022/11/29 05:09:35;;;;;;;42.65;22.52;;;11.00;99.90;;;;;;2076546;28;20053;-71
2022/11/29 05:11:03;;;;;;;42.20;22.55;;;11.00;99.90;;;;;;2075865;28;20045;-71
2022/11/29 05:12:22;;;;;;;47.20;22.70;;;11.00;99.90;;;;;;2077294;28;20095;-71
2022/11/29 05:13:27;;;;;;;39.08;21.77;;;11.00;99.90;;;;;;2076181;28;20059;-71
2022/11/29 05:14:37;;;;;;;48.22;25.42;;;11.00;99.90;;;;;;2074389;28;20026;-71
2022/11/29 05:15:44;;;;;;;46.22;23.05;;;11.00;99.90;;;;;;2076965;28;20053;-71
2022/11/29 05:17:01;;;;;;;46.53;23.63;;;11.00;99.90;;;;;;2077652;28;20041;-71
2022/11/29 05:18:39;;;;;;;48.75;25.38;;;11.00;99.90;;;;;;2075208;28;20021;-71
2022/11/29 05:19:55;;;;;;;50.63;23.85;;;11.00;99.90;;;;;;2077509;28;20319;-71
2022/11/29 05:21:17;;;;;;;44.20;23.00;;;11.00;99.90;;;;;;2077441;28;20420;-71
2022/11/29 05:22:42;;;;;;;44.10;23.77;;;11.00;99.90;;;;;;2076455;28;20057;-71
2022/11/29 05:24:01;;;;;;;42.67;22.80;;;11.00;99.90;;;;;;2073940;28;20030;-71
2022/11/29 05:25:32;;;;;;;46.97;23.60;;;10.90;99.90;;;;;;2077695;28;20132;-71
2022/11/29 05:26:37;;;;;;;;;;;11.00;99.90;;;;;;2074864;28;20618;-71
2022/11/29 05:28:00;;;;;;;42.17;22.92;;;10.90;99.90;;;;;;2074597;28;20003;-71
2022/11/29 05:29:08;;;;;;;37.78;20.70;;;10.90;99.90;;;;;;2074459;28;20036;-71
2022/11/29 05:30:12;;;;;;;35.47;19.25;;;10.90;99.90;;;;;;2076651;28;20036;-71
2022/11/29 05:31:29;;;;;;;38.33;21.60;;;10.90;99.90;;;;;;2076687;28;20077;-71
2022/11/29 05:32:56;;;;;;;46.85;23.42;;;11.00;99.90;;;;;;2075497;28;20052;-71
2022/11/29 05:34:24;;;;;;;46.30;23.63;;;11.00;99.90;;;;;;2077956;28;20024;-71
2022/11/29 05:35:52;;;;;;;50.28;23.48;;;11.00;99.90;;;;;;2076775;28;20090;-71
2022/11/29 05:37:30;;;;;;;41.30;22.60;;;11.00;99.90;;;;;;2076466;28;20022;-73
2022/11/29 05:38:44;;;;;;;41.40;22.70;;;10.90;99.90;;;;;;2077747;28;20025;-71
2022/11/29 05:40:02;;;;;;;44.72;24.00;;;10.90;99.90;;;;;;2075770;28;20030;-71
2022/11/29 05:41:25;;;;;;;32.92;20.25;;;10.90;99.90;;;;;;2076958;28;20477;-71
2022/11/29 05:43:00;;;;;;;41.22;20.60;;;11.00;99.90;;;;;;2076607;28;20025;-70
2022/11/29 05:44:37;;;;;;;38.50;19.05;;;10.90;99.90;;;;;;2076657;28;20025;-73
2022/11/29 05:45:46;;;;;;;30.42;17.58;;;10.90;99.90;;;;;;2078553;28;20021;-70
2022/11/29 05:47:01;;;;;;;38.85;22.48;;;11.00;99.90;;;;;;2076973;28;20630;-70
2022/11/29 05:48:31;;;;;;;30.50;17.40;;;11.00;99.90;;;;;;2077696;28;20025;-70
2022/11/29 05:49:43;;;;;;;39.67;21.42;;;11.00;99.90;;;;;;2074664;28;20033;-70
2022/11/29 05:50:49;;;;;;;32.17;18.20;;;11.00;99.90;;;;;;2075400;28;20037;-70
2022/11/29 05:52:27;;;;;;;40.28;22.17;;;10.90;99.90;;;;;;2075695;28;20026;-70
2022/11/29 05:53:42;;;;;;;33.75;20.05;;;11.00;99.90;;;;;;2077388;28;20520;-70
2022/11/29 05:54:54;;;;;;;38.40;21.13;;;11.00;99.90;;;;;;2076059;28;20022;-70
2022/11/29 05:56:03;;;;;;;32.45;16.98;;;11.00;99.90;;;;;;2077401;28;20060;-70
2022/11/29 05:57:25;;;;;;;38.50;20.58;;;11.00;99.90;;;;;;2077328;28;20707;-70
2022/11/29 05:58:59;;;;;;;35.85;21.33;;;11.00;99.90;;;;;;2078455;28;20056;-70
2022/11/29 06:00:01;;;;;;;40.08;20.90;;;11.00;99.90;;;;;;2077267;28;20596;-70
2022/11/29 06:01:31;;;;;;;37.10;20.17;;;11.00;99.90;;;;;;2076171;28;20932;-73
2022/11/29 06:02:40;;;;;;;35.08;19.58;;;10.90;99.90;;;;;;2074089;28;20148;-71
2022/11/29 06:04:04;;;;;;;29.55;18.83;;;11.00;99.90;;;;;;2077199;28;20025;-73
2022/11/29 06:05:19;;;;;;;31.60;17.45;;;10.90;99.90;;;;;;2076700;28;20064;-70
2022/11/29 06:06:57;;;;;;;31.35;17.17;;;10.90;99.90;;;;;;2077801;28;20026;-70
2022/11/29 06:08:06;;;;;;;31.75;18.70;;;10.90;99.90;;;;;;2077407;28;20512;-70
2022/11/29 06:09:32;;;;;;;31.75;17.65;;;10.90;99.90;;;;;;2077292;28;20041;-70
2022/11/29 06:10:38;;;;;;;24.73;15.38;;;10.90;99.90;;;;;;2074178;28;20092;-70